Time;durP1;ratioP1;P1;durP2;ratioP2;P2;SDS_P1;SDS_P2;PMS_P1;PMS_P2;Temp;Humidity;BMP_temperature;BMP_pressure;BME280_temperature;BME280_humidity;BME280_pressure;Samples;Min_cycle;Max_cycle;Signal;HPM_P1;HPM_P2
2021/07/08 00:01:39;;;;;;;8.32;4.45;;;;;;;15.30;100.00;94109.13;5135888;27;20197;-77
2021/07/08 00:04:05;;;;;;;6.93;3.90;;;;;;;15.35;100.00;94095.31;5135843;27;20249;-77
2021/07/08 00:06:32;;;;;;;9.75;4.88;;;;;;;15.33;100.00;94110.50;5135758;27;20197;-76
2021/07/08 00:09:00;;;;;;;7.88;4.50;;;;;;;15.34;100.00;94112.13;5135672;27;20201;-79
2021/07/08 00:11:27;;;;;;;9.63;4.80;;;;;;;15.33;100.00;94118.41;5135078;27;20277;-78
2021/07/08 00:13:54;;;;;;;6.35;4.38;;;;;;;15.32;100.00;94114.16;5135392;27;20209;-79
2021/07/08 00:16:20;;;;;;;7.43;3.50;;;;;;;15.32;100.00;94122.06;5135528;27;20219;-79
2021/07/08 00:18:47;;;;;;;5.35;2.80;;;;;;;15.24;100.00;94130.25;5135606;27;20199;-77
2021/07/08 00:21:13;;;;;;;4.07;2.63;;;;;;;15.15;100.00;94133.19;5135318;27;20659;-77
2021/07/08 00:23:40;;;;;;;3.25;2.55;;;;;;;15.07;100.00;94136.13;5135384;27;20204;-76
2021/07/08 00:26:08;;;;;;;4.40;3.03;;;;;;;15.07;100.00;94128.22;5135272;27;20555;-76
2021/07/08 00:28:34;;;;;;;5.88;2.95;;;;;;;15.05;100.00;94111.06;5134818;27;20231;-77
2021/07/08 00:31:00;;;;;;;4.45;2.92;;;;;;;14.99;100.00;94096.97;5135247;27;20232;-76
2021/07/08 00:33:27;;;;;;;6.57;2.67;;;;;;;14.96;100.00;94081.63;5131426;27;20203;-76
2021/07/08 00:35:53;;;;;;;2.75;1.90;;;;;;;14.98;100.00;94074.31;5120306;27;20204;-78
2021/07/08 00:38:20;;;;;;;4.88;2.08;;;;;;;14.95;100.00;94067.69;5135053;27;20200;-76
2021/07/08 00:40:47;;;;;;;1.95;1.63;;;;;;;14.95;100.00;94069.50;5135059;27;20601;-77
2021/07/08 00:43:15;;;;;;;4.50;1.85;;;;;;;14.94;100.00;94062.66;5134847;27;20200;-77
2021/07/08 00:45:42;;;;;;;7.45;1.90;;;;;;;14.95;100.00;94056.34;5136835;27;20643;-78
2021/07/08 00:48:09;;;;;;;5.30;2.10;;;;;;;15.02;100.00;94053.63;5134814;27;20605;-76
2021/07/08 00:50:42;;;;;;;3.78;2.30;;;;;;;15.10;100.00;94040.19;5134839;27;20208;-77
2021/07/08 00:53:09;;;;;;;8.10;2.53;;;;;;;15.14;100.00;94028.22;5134832;27;20209;-77
2021/07/08 00:55:36;;;;;;;4.57;2.15;;;;;;;15.17;100.00;94007.53;5134831;27;20193;-76
2021/07/08 00:58:02;;;;;;;3.92;1.52;;;;;;;15.16;100.00;93992.75;5135238;27;20209;-76
2021/07/08 01:00:33;;;;;;;2.85;1.60;;;;;;;15.13;100.00;93987.16;5134855;27;20203;-77
2021/07/08 01:03:00;;;;;;;2.97;1.50;;;;;;;15.10;100.00;94006.78;5134599;27;20204;-77
2021/07/08 01:05:29;;;;;;;1.23;1.08;;;;;;;15.05;100.00;94014.53;5134594;27;20199;-79
2021/07/08 01:07:56;;;;;;;1.40;1.30;;;;;;;15.08;100.00;94027.25;5134422;27;20224;-77
2021/07/08 01:10:23;;;;;;;2.97;1.52;;;;;;;15.06;100.00;94033.78;5133472;27;20536;-77
2021/07/08 01:12:49;;;;;;;3.17;2.15;;;;;;;15.05;100.00;94040.06;5134588;27;20221;-77
2021/07/08 01:15:16;;;;;;;3.20;1.90;;;;;;;15.00;100.00;94043.34;5134484;27;20253;-76
2021/07/08 01:17:45;;;;;;;4.72;2.10;;;;;;;14.97;100.00;94049.03;5134269;27;20693;-76
2021/07/08 01:20:13;;;;;;;4.53;2.30;;;;;;;14.96;100.00;94071.09;5134318;27;20253;-77
2021/07/08 01:22:42;;;;;;;4.07;2.13;;;;;;;14.95;100.00;94074.75;5134128;27;20197;-76
2021/07/08 01:25:12;;;;;;;2.67;1.55;;;;;;;14.96;100.00;94092.13;5134842;27;20201;-77
2021/07/08 01:27:40;;;;;;;2.90;1.52;;;;;;;14.94;100.00;94099.44;5138833;27;20659;-77
2021/07/08 01:30:08;;;;;;;1.40;1.30;;;;;;;14.87;100.00;94110.03;5135108;27;20236;-76
2021/07/08 01:32:35;;;;;;;3.63;1.48;;;;;;;14.81;100.00;94108.28;5134022;27;20232;-76
2021/07/08 01:35:02;;;;;;;1.85;1.40;;;;;;;14.79;100.00;94112.94;5133972;27;20203;-77
2021/07/08 01:37:29;;;;;;;2.40;1.42;;;;;;;14.77;100.00;94120.22;5133964;27;20200;-76
2021/07/08 01:40:00;;;;;;;3.30;1.88;;;;;;;14.76;100.00;94118.63;5133898;27;20663;-76
2021/07/08 01:42:27;;;;;;;1.83;1.50;;;;;;;14.78;100.00;94114.75;5134153;27;20196;-76
2021/07/08 01:44:53;;;;;;;2.00;1.50;;;;;;;14.73;100.00;94093.59;5134018;27;20223;-77
2021/07/08 01:47:20;;;;;;;4.53;1.50;;;;;;;14.71;100.00;94095.63;5133957;27;20224;-76
2021/07/08 01:49:46;;;;;;;3.45;1.90;;;;;;;14.60;100.00;94097.16;5133734;27;20193;-75
2021/07/08 01:52:13;;;;;;;5.00;1.58;;;;;;;14.55;100.00;94091.69;5134146;28;20624;-77
2021/07/08 01:54:39;;;;;;;5.72;2.03;;;;;;;14.54;100.00;94097.19;5135922;28;20197;-77
2021/07/08 01:57:07;;;;;;;3.15;1.30;;;;;;;14.39;100.00;94103.59;5133939;28;20200;-76
2021/07/08 01:59:33;;;;;;;2.45;1.70;;;;;;;14.29;100.00;94111.16;5133816;28;20197;-76
2021/07/08 02:02:00;;;;;;;2.85;1.63;;;;;;;14.19;100.00;94108.22;5133756;28;20200;-77
2021/07/08 02:04:27;;;;;;;4.30;1.50;;;;;;;14.11;100.00;94118.97;5133588;28;20204;-77
2021/07/08 02:06:53;;;;;;;2.38;1.70;;;;;;;14.04;100.00;94117.19;5133853;28;20203;-79
2021/07/08 02:09:20;;;;;;;2.95;1.60;;;;;;;14.09;100.00;94116.56;5133859;28;20200;-76
2021/07/08 02:11:46;;;;;;;2.65;1.75;;;;;;;14.11;100.00;94103.22;5133717;28;20228;-77
2021/07/08 02:14:14;;;;;;;4.40;1.80;;;;;;;14.16;100.00;94092.88;5133439;28;20258;-78
2021/07/08 02:16:40;;;;;;;2.30;1.80;;;;;;;14.14;100.00;94089.63;5133691;28;20209;-76
2021/07/08 02:19:08;;;;;;;2.15;1.80;;;;;;;14.13;100.00;94099.34;5133646;28;20608;-80
2021/07/08 02:21:34;;;;;;;2.42;1.80;;;;;;;14.13;100.00;94103.81;5135872;27;20234;-80
2021/07/08 02:24:01;;;;;;;2.55;2.10;;;;;;;14.13;100.00;94106.44;5137661;27;20204;-78
2021/07/08 02:26:28;;;;;;;2.47;2.00;;;;;;;14.17;100.00;94108.41;5137655;27;20647;-77
2021/07/08 02:28:54;;;;;;;5.03;2.00;;;;;;;14.14;100.00;94108.03;5137366;27;20216;-77
2021/07/08 02:31:22;;;;;;;3.20;1.55;;;;;;;14.08;100.00;94107.06;5137369;27;20253;-76
2021/07/08 02:33:49;;;;;;;3.97;1.58;;;;;;;14.06;100.00;94102.03;5137661;27;20200;-76
2021/07/08 02:36:15;;;;;;;3.90;1.67;;;;;;;14.05;100.00;94100.44;5137600;27;20222;-76
2021/07/08 02:38:41;;;;;;;6.57;1.80;;;;;;;14.05;100.00;94108.31;5137556;27;20196;-76
2021/07/08 02:41:09;;;;;;;2.13;1.60;;;;;;;14.03;100.00;94110.31;5137399;27;20197;-76
2021/07/08 02:43:35;;;;;;;2.22;1.98;;;;;;;14.03;100.00;94107.69;5137328;27;20201;-77
2021/07/08 02:46:02;;;;;;;4.30;1.90;;;;;;;14.03;100.00;94088.53;5137118;27;20197;-77
2021/07/08 02:48:30;;;;;;;4.80;1.75;;;;;;;14.02;100.00;94079.84;5137320;27;20200;-77
2021/07/08 02:50:57;;;;;;;5.25;1.83;;;;;;;14.03;100.00;94072.78;5137261;27;20204;-77
2021/07/08 02:53:24;;;;;;;5.50;2.13;;;;;;;14.03;100.00;94073.56;5137131;27;20273;-77
2021/07/08 02:55:53;;;;;;;2.92;2.20;;;;;;;14.01;100.00;94080.88;5137101;27;20193;-78
2021/07/08 02:58:20;;;;;;;8.40;2.10;;;;;;;13.99;100.00;94085.53;5137259;27;20201;-77
2021/07/08 03:00:48;;;;;;;1.95;1.50;;;;;;;14.01;100.00;94088.75;5136812;27;20201;-77
2021/07/08 03:03:15;;;;;;;2.58;1.88;;;;;;;14.03;100.00;94101.66;5137120;27;20205;-77
2021/07/08 03:05:43;;;;;;;2.90;1.88;;;;;;;14.01;100.00;94104.50;5137020;27;20200;-76
2021/07/08 03:08:10;;;;;;;4.28;1.83;;;;;;;13.98;100.00;94102.28;5136831;27;20659;-76
2021/07/08 03:10:37;;;;;;;2.78;1.85;;;;;;;13.98;100.00;94107.53;5136800;27;20235;-79
2021/07/08 03:13:04;;;;;;;3.50;1.80;;;;;;;13.94;100.00;94095.88;5136557;27;20278;-78
2021/07/08 03:15:31;;;;;;;2.13;1.88;;;;;;;13.97;100.00;94084.13;5136983;27;20197;-78
2021/07/08 03:17:58;;;;;;;4.20;1.80;;;;;;;13.95;100.00;94092.22;5136842;27;20201;-79
2021/07/08 03:20:26;;;;;;;3.90;1.83;;;;;;;13.93;100.00;94091.63;5136748;27;20292;-77
2021/07/08 03:22:55;;;;;;;2.38;1.77;;;;;;;13.89;100.00;94103.56;5136494;27;20200;-77
2021/07/08 03:25:22;;;;;;;2.00;1.80;;;;;;;13.88;100.00;94115.09;5136525;27;20201;-77
2021/07/08 03:27:49;;;;;;;2.83;1.58;;;;;;;13.91;100.00;94121.75;5136259;27;20201;-76
2021/07/08 03:30:19;;;;;;;4.05;1.98;;;;;;;13.94;100.00;94121.28;5136229;27;20235;-78
2021/07/08 03:32:46;;;;;;;2.97;1.95;;;;;;;13.95;100.00;94121.09;5135374;27;20315;-76
2021/07/08 03:35:13;;;;;;;3.83;1.77;;;;;;;13.99;100.00;94119.66;5136425;27;20261;-76
2021/07/08 03:37:40;;;;;;;2.00;1.80;;;;;;;14.04;100.00;94121.66;5136324;27;20283;-78
2021/07/08 03:40:11;;;;;;;3.03;1.83;;;;;;;14.11;100.00;94119.78;5136120;27;20200;-78
2021/07/08 03:42:37;;;;;;;3.72;2.10;;;;;;;14.17;100.00;94111.06;5136424;27;20668;-78
2021/07/08 03:45:05;;;;;;;3.13;2.10;;;;;;;14.17;100.00;94116.31;5136217;27;20219;-79
2021/07/08 03:47:32;;;;;;;4.50;2.10;;;;;;;14.20;100.00;94120.31;5136184;27;20774;-79
2021/07/08 03:49:58;;;;;;;2.00;1.80;;;;;;;14.27;100.00;94115.78;5135972;27;20197;-79
2021/07/08 03:52:25;;;;;;;2.63;1.73;;;;;;;14.23;100.00;94109.38;5135944;27;20228;-77
2021/07/08 03:54:52;;;;;;;1.92;1.63;;;;;;;14.23;100.00;94112.78;5135850;27;20651;-76
2021/07/08 03:57:20;;;;;;;3.88;1.88;;;;;;;14.22;100.00;94092.00;5136030;27;20204;-77
2021/07/08 03:59:46;;;;;;;5.15;1.80;;;;;;;14.22;100.00;94084.13;5135980;27;20209;-78
2021/07/08 04:02:13;;;;;;;3.50;1.60;;;;;;;14.21;100.00;94085.16;5135928;27;20222;-77
2021/07/08 04:04:41;;;;;;;2.22;1.45;;;;;;;14.18;100.00;94090.84;5135730;27;20200;-78
2021/07/08 04:07:08;;;;;;;2.28;1.95;;;;;;;14.19;100.00;94093.25;5135554;27;20412;-77
2021/07/08 04:09:35;;;;;;;2.70;1.70;;;;;;;14.17;100.00;94092.66;5135835;27;20204;-77
2021/07/08 04:12:02;;;;;;;3.03;1.60;;;;;;;14.19;100.00;94092.44;5135627;27;20232;-79
2021/07/08 04:14:30;;;;;;;4.75;1.85;;;;;;;14.19;100.00;94088.00;5135672;27;20200;-78
2021/07/08 04:16:56;;;;;;;5.82;1.90;;;;;;;14.25;100.00;94075.81;5135745;27;20211;-77
2021/07/08 04:19:23;;;;;;;2.83;1.80;;;;;;;14.23;100.00;94080.50;5134376;27;20468;-76
2021/07/08 04:21:49;;;;;;;2.95;1.52;;;;;;;14.27;100.00;94070.34;5135332;27;20196;-77
2021/07/08 04:24:15;;;;;;;7.90;2.22;;;;;;;14.28;100.00;94064.88;5135268;27;20552;-79
2021/07/08 04:26:42;;;;;;;3.63;1.73;;;;;;;14.30;100.00;94052.34;5137335;27;20203;-79
2021/07/08 04:29:09;;;;;;;5.35;1.67;;;;;;;14.32;100.00;94039.81;5136433;27;20224;-79
2021/07/08 04:31:36;;;;;;;5.68;2.15;;;;;;;14.36;100.00;94035.72;5135577;27;20200;-78
2021/07/08 04:34:03;;;;;;;2.42;1.50;;;;;;;14.36;100.00;94033.09;5135110;27;20228;-78
2021/07/08 04:36:29;;;;;;;5.45;1.73;;;;;;;14.36;100.00;94033.09;5136960;27;20253;-79
2021/07/08 04:38:56;;;;;;;5.30;1.50;;;;;;;14.42;100.00;94040.09;5137818;27;20197;-78
2021/07/08 04:41:22;;;;;;;2.28;1.55;;;;;;;14.51;100.00;94038.00;5135576;27;20560;-78
2021/07/08 04:43:49;;;;;;;3.90;1.40;;;;;;;14.51;100.00;94021.44;5134854;27;20589;-77
2021/07/08 04:46:15;;;;;;;3.42;1.60;;;;;;;14.50;100.00;94011.94;5137760;27;20219;-79
2021/07/08 04:48:44;;;;;;;3.83;1.80;;;;;;;14.55;100.00;94001.56;5137970;27;20199;-78
2021/07/08 04:51:11;;;;;;;3.05;1.67;;;;;;;14.59;100.00;93989.66;5137058;27;20200;-80
2021/07/08 04:53:38;;;;;;;7.00;1.98;;;;;;;14.59;100.00;93976.50;5142627;27;20246;-80
2021/07/08 04:56:05;;;;;;;3.65;1.98;;;;;;;14.59;100.00;93979.13;5143845;27;20600;-80
2021/07/08 04:58:31;;;;;;;4.82;1.95;;;;;;;14.68;100.00;93975.16;5138551;27;20201;-78
2021/07/08 05:00:58;;;;;;;3.90;1.92;;;;;;;14.75;100.00;93994.28;5139296;27;20283;-79
2021/07/08 05:03:24;;;;;;;3.80;1.60;;;;;;;14.85;100.00;94000.84;5136173;27;20208;-79
2021/07/08 05:05:52;;;;;;;2.50;1.77;;;;;;;14.95;100.00;94025.63;5135004;27;20257;-79
2021/07/08 05:08:18;;;;;;;2.08;1.40;;;;;;;15.03;100.00;94032.38;5134728;27;20277;-79
2021/07/08 05:10:45;;;;;;;2.30;1.45;;;;;;;14.99;100.00;94039.13;5135492;27;20265;-79
2021/07/08 05:13:11;;;;;;;1.92;1.23;;;;;;;15.05;100.00;94053.19;5136729;27;20224;-79
2021/07/08 05:15:38;;;;;;;3.78;1.33;;;;;;;14.96;100.00;94065.84;5134487;27;20192;-79
2021/07/08 05:18:05;;;;;;;3.25;1.67;;;;;;;14.92;100.00;94083.06;5142419;27;20196;-79
2021/07/08 05:20:32;;;;;;;1.90;1.42;;;;;;;14.93;100.00;94101.25;5136124;27;20203;-78
2021/07/08 05:23:02;;;;;;;2.00;1.30;;;;;;;14.97;100.00;94114.75;5134430;27;20208;-78
2021/07/08 05:25:29;;;;;;;2.33;1.42;;;;;;;15.03;100.00;94124.41;5137766;27;20559;-79
2021/07/08 05:27:57;;;;;;;3.40;1.65;;;;;;;15.05;100.00;94126.81;5136070;27;20216;-78
2021/07/08 05:30:24;;;;;;;1.92;1.60;;;;;;;15.09;100.00;94126.19;5138221;27;20231;-80
2021/07/08 05:32:50;;;;;;;2.50;1.63;;;;;;;15.15;100.00;94135.81;5142494;27;20244;-79
2021/07/08 05:35:17;;;;;;;2.40;1.70;;;;;;;15.12;100.00;94131.00;5138457;27;20295;-79
2021/07/08 05:37:43;;;;;;;1.40;1.30;;;;;;;15.14;100.00;94142.09;5134498;27;20207;-78
2021/07/08 05:40:12;;;;;;;1.50;1.35;;;;;;;15.07;100.00;94136.13;5135306;27;20200;-80
2021/07/08 05:42:38;;;;;;;3.45;1.63;;;;;;;15.10;100.00;94130.41;5134739;27;20193;-81
2021/07/08 05:45:06;;;;;;;4.38;1.38;;;;;;;15.18;100.00;94137.19;5134743;27;20200;-79
2021/07/08 05:47:33;;;;;;;3.58;1.25;;;;;;;15.29;100.00;94133.03;5134177;27;20647;-78
2021/07/08 05:49:59;;;;;;;2.00;1.42;;;;;;;15.24;100.00;94136.31;5134907;27;20200;-78
2021/07/08 05:52:26;;;;;;;1.35;1.15;;;;;;;15.40;100.00;94142.81;5134059;28;20196;-78
2021/07/08 05:54:53;;;;;;;4.07;1.33;;;;;;;15.50;100.00;94143.09;5134921;27;20200;-78
2021/07/08 05:57:20;;;;;;;1.80;1.20;;;;;;;15.58;100.00;94143.81;5142478;27;20208;-79
2021/07/08 05:59:47;;;;;;;5.78;1.20;;;;;;;15.57;100.00;94144.84;5142999;27;20201;-80
2021/07/08 06:02:13;;;;;;;1.40;1.10;;;;;;;15.54;100.00;94133.72;5145262;27;20200;-79
2021/07/08 06:04:40;;;;;;;2.17;1.30;;;;;;;15.55;100.00;94131.91;5142638;27;20203;-78
2021/07/08 06:07:07;;;;;;;2.30;1.27;;;;;;;15.51;100.00;94131.53;5143458;27;20204;-77
2021/07/08 06:09:33;;;;;;;2.10;1.35;;;;;;;15.45;100.00;94129.78;5143620;27;20683;-80
2021/07/08 06:12:00;;;;;;;4.78;1.77;;;;;;;15.31;100.00;94128.34;5141961;27;20192;-78
2021/07/08 06:14:27;;;;;;;2.38;1.40;;;;;;;15.22;100.00;94132.28;5143333;27;20224;-80
2021/07/08 06:16:54;;;;;;;4.95;1.40;;;;;;;15.23;100.00;94139.19;5124527;28;20246;-80
2021/07/08 06:19:20;;;;;;;1.27;1.15;;;;;;;15.31;100.00;94141.50;5120069;28;20652;-78
2021/07/08 06:21:48;;;;;;;1.70;1.60;;;;;;;15.36;100.00;94149.53;5120653;28;20224;-79
2021/07/08 06:24:15;;;;;;;2.15;1.73;;;;;;;15.42;100.00;94140.78;5121344;28;20201;-79
2021/07/08 06:26:41;;;;;;;2.38;1.80;;;;;;;15.50;100.00;94150.19;5119841;28;20209;-79
2021/07/08 06:29:08;;;;;;;2.05;1.73;;;;;;;15.57;100.00;94145.66;5133002;27;20273;-78
2021/07/08 06:31:36;;;;;;;1.90;1.70;;;;;;;15.64;100.00;94140.31;5140619;27;20192;-77
2021/07/08 06:34:05;;;;;;;2.85;2.17;;;;;;;15.76;100.00;94135.91;5141475;27;20620;-80
2021/07/08 06:36:32;;;;;;;6.95;2.60;;;;;;;15.72;100.00;94137.34;5142705;27;20291;-81
2021/07/08 06:38:58;;;;;;;3.95;1.90;;;;;;;15.73;100.00;94162.66;5141749;27;20220;-80
2021/07/08 06:41:25;;;;;;;2.83;2.05;;;;;;;15.63;100.00;94159.75;5143564;27;20205;-79
2021/07/08 06:43:51;;;;;;;6.32;2.80;;;;;;;15.51;100.00;94163.13;5143120;27;20257;-79
2021/07/08 06:46:18;;;;;;;3.03;2.20;;;;;;;15.50;100.00;94161.53;5142307;27;20200;-82
2021/07/08 06:48:46;;;;;;;2.28;1.83;;;;;;;15.45;100.00;94166.63;5144051;27;20270;-82
2021/07/08 06:51:13;;;;;;;2.92;2.53;;;;;;;15.47;100.00;94166.41;5144764;27;20201;-81
2021/07/08 06:53:39;;;;;;;4.68;2.90;;;;;;;15.56;100.00;94154.56;5142075;27;20224;-82
2021/07/08 06:56:06;;;;;;;4.57;3.03;;;;;;;15.68;100.00;94146.72;5143392;27;20201;-82
2021/07/08 06:58:32;;;;;;;4.32;3.30;;;;;;;15.71;100.00;94146.28;5146904;27;20197;-83
2021/07/08 07:00:59;;;;;;;5.45;3.10;;;;;;;15.76;100.00;94138.53;5144941;27;20201;-81
2021/07/08 07:03:26;;;;;;;7.25;3.08;;;;;;;15.86;100.00;94140.63;5146877;27;20208;-82
2021/07/08 07:05:55;;;;;;;4.53;3.25;;;;;;;15.85;100.00;94139.84;5145481;27;20200;-81
2021/07/08 07:08:21;;;;;;;4.40;3.17;;;;;;;15.86;100.00;94128.28;5142140;27;20204;-80
2021/07/08 07:10:47;;;;;;;4.70;2.92;;;;;;;15.78;100.00;94130.41;5141837;27;20283;-80
2021/07/08 07:13:14;;;;;;;3.45;2.70;;;;;;;15.71;100.00;94110.22;5143637;27;20682;-81
2021/07/08 07:15:41;;;;;;;3.92;3.30;;;;;;;15.71;100.00;94115.47;5143518;27;20436;-81
2021/07/08 07:18:08;;;;;;;6.35;3.10;;;;;;;15.66;100.00;94114.56;5144498;27;20222;-83
2021/07/08 07:20:34;;;;;;;6.82;3.28;;;;;;;15.82;100.00;94116.59;5145344;27;20197;-82
2021/07/08 07:23:02;;;;;;;4.00;2.90;;;;;;;15.88;100.00;94109.63;5144312;27;20197;-83
2021/07/08 07:25:29;;;;;;;3.97;2.90;;;;;;;16.00;100.00;94092.00;5144353;27;20222;-80
2021/07/08 07:27:56;;;;;;;5.00;3.17;;;;;;;16.06;100.00;94088.47;5142412;27;20714;-81
2021/07/08 07:30:25;;;;;;;7.30;2.38;;;;;;;16.05;100.00;94109.75;5146604;27;20205;-81
2021/07/08 07:32:52;;;;;;;4.53;3.10;;;;;;;16.00;100.00;94122.81;5145145;27;20203;-81
2021/07/08 07:35:19;;;;;;;2.65;2.40;;;;;;;15.85;100.00;94134.59;5144137;27;20197;-81
2021/07/08 07:37:46;;;;;;;4.68;2.92;;;;;;;15.86;100.00;94138.81;5143633;27;20261;-81
2021/07/08 07:40:14;;;;;;;3.47;2.58;;;;;;;15.82;100.00;94142.09;5143251;27;20193;-81
2021/07/08 07:42:41;;;;;;;3.80;2.80;;;;;;;15.96;100.00;94142.75;5144640;27;20544;-81
2021/07/08 07:45:09;;;;;;;3.55;2.10;;;;;;;16.13;100.00;94154.22;5143788;27;20216;-80
2021/07/08 07:47:36;;;;;;;6.60;2.30;;;;;;;16.48;100.00;94165.88;5143470;27;20196;-81
2021/07/08 07:50:04;;;;;;;4.20;2.88;;;;;;;16.67;100.00;94166.56;5141653;27;20204;-80
2021/07/08 07:52:31;;;;;;;5.60;2.40;;;;;;;16.80;100.00;94158.44;5142190;27;20196;-80
2021/07/08 07:54:57;;;;;;;4.40;2.88;;;;;;;16.87;100.00;94153.91;5138066;27;20228;-81
2021/07/08 07:57:25;;;;;;;5.07;2.40;;;;;;;17.21;100.00;94151.44;5137891;27;20266;-80
2021/07/08 07:59:52;;;;;;;2.65;2.17;;;;;;;17.73;100.00;94154.03;5120148;27;20200;-81
2021/07/08 08:02:19;;;;;;;5.35;2.40;;;;;;;18.09;100.00;94149.47;5125655;28;20687;-81
2021/07/08 08:04:53;;;;;;;3.40;2.30;;;;;;;18.74;100.00;94141.25;5123563;28;20223;-77
2021/07/08 08:10:06;;;;;;;2.85;1.80;;;;;;;19.03;100.00;94145.41;5131188;27;20267;-79
2021/07/08 08:12:34;;;;;;;3.63;2.20;;;;;;;18.71;100.00;94134.59;5125346;27;20198;-82
2021/07/08 08:15:04;;;;;;;3.83;2.13;;;;;;;19.13;100.00;94126.19;5132589;27;20224;-81
2021/07/08 08:17:30;;;;;;;3.88;1.60;;;;;;;19.32;100.00;94133.88;5128323;27;20644;-81
2021/07/08 08:19:57;;;;;;;1.88;1.30;;;;;;;19.50;100.00;94141.50;5124203;27;20205;-77
2021/07/08 08:22:23;;;;;;;8.05;1.27;;;;;;;19.26;100.00;94138.28;5122312;27;20202;-79
2021/07/08 08:24:51;;;;;;;2.15;1.35;;;;;;;19.48;100.00;94138.28;5119669;28;20205;-80
2021/07/08 08:27:17;;;;;;;3.92;1.50;;;;;;;19.41;100.00;94140.31;5123186;28;20208;-78
2021/07/08 08:29:45;;;;;;;1.75;1.17;;;;;;;19.90;100.00;94156.28;5138563;27;20228;-80
2021/07/08 08:32:12;;;;;;;2.10;1.08;;;;;;;20.02;100.00;94168.56;5136191;27;20295;-78
2021/07/08 08:34:38;;;;;;;3.10;1.10;;;;;;;19.95;100.00;94168.75;5135816;27;20297;-79
2021/07/08 08:37:05;;;;;;;2.63;1.00;;;;;;;19.57;100.00;94170.44;5136577;27;20204;-80
2021/07/08 08:39:32;;;;;;;6.90;1.20;;;;;;;19.35;100.00;94176.53;5135602;27;20205;-79
2021/07/08 08:41:59;;;;;;;0.70;0.70;;;;;;;19.26;100.00;94183.28;5139729;27;20599;-78
2021/07/08 08:44:25;;;;;;;1.20;1.10;;;;;;;19.48;100.00;94174.56;5139364;27;20200;-79
2021/07/08 08:46:53;;;;;;;4.35;1.02;;;;;;;19.58;100.00;94175.50;5143493;27;20193;-78
2021/07/08 08:49:20;;;;;;;1.00;0.90;;;;;;;19.62;100.00;94174.97;5145119;27;20201;-80
2021/07/08 08:51:47;;;;;;;1.77;0.90;;;;;;;19.38;100.00;94183.16;5143758;27;20207;-82
2021/07/08 08:54:14;;;;;;;1.65;1.02;;;;;;;19.19;100.00;94183.47;5140307;27;20228;-82
2021/07/08 08:56:41;;;;;;;1.83;0.85;;;;;;;19.48;100.00;94179.84;5144622;27;20208;-78
2021/07/08 08:59:07;;;;;;;0.95;0.80;;;;;;;19.88;100.00;94190.16;5144330;27;20196;-81
2021/07/08 09:01:35;;;;;;;1.02;0.80;;;;;;;20.10;100.00;94194.63;5144111;27;20196;-80
2021/07/08 09:04:03;;;;;;;1.65;0.73;;;;;;;20.00;100.00;94208.59;5143646;27;20254;-81
2021/07/08 09:06:36;;;;;;;1.42;0.63;;;;;;;20.22;100.00;94205.13;5145019;27;20659;-82
2021/07/08 09:09:08;;;;;;;0.70;0.70;;;;;;;20.47;100.00;94205.34;5144564;27;20197;-82
2021/07/08 09:11:35;;;;;;;1.27;0.90;;;;;;;19.98;100.00;94196.63;5125804;27;20644;-82
2021/07/08 09:14:03;;;;;;;0.80;0.80;;;;;;;20.18;100.00;94202.13;5120641;28;20221;-82
2021/07/08 09:16:33;;;;;;;1.50;0.80;;;;;;;20.03;100.00;94202.00;5131182;28;20197;-81
2021/07/08 09:19:06;;;;;;;1.70;0.93;;;;;;;19.50;100.00;94198.94;5118565;28;20431;-80
2021/07/08 09:21:37;;;;;;;1.10;0.88;;;;;;;19.57;100.00;94196.94;5120802;28;20197;-81
2021/07/08 09:24:13;;;;;;;0.90;0.90;;;;;;;19.90;100.00;94198.69;5119199;28;20205;-81
2021/07/08 09:26:42;;;;;;;2.08;1.25;;;;;;;19.70;100.00;94187.78;5121152;28;20695;-81
2021/07/08 09:29:11;;;;;;;1.55;1.10;;;;;;;19.99;100.00;94191.09;5132362;27;20717;-81
2021/07/08 09:31:39;;;;;;;1.63;1.33;;;;;;;20.32;100.00;94187.44;5140990;27;20685;-81
2021/07/08 09:34:19;;;;;;;1.50;1.40;;;;;;;20.51;100.00;94182.56;5137769;27;20217;-81
2021/07/08 09:36:47;;;;;;;2.17;1.20;;;;;;;20.72;100.00;94181.97;5140078;27;20541;-81
2021/07/08 09:39:14;;;;;;;1.00;0.90;;;;;;;20.60;100.00;94169.66;5139652;27;20222;-80
2021/07/08 09:41:52;;;;;;;1.00;0.90;;;;;;;19.75;100.00;94154.25;5139725;27;20549;-81
2021/07/08 09:44:21;;;;;;;3.22;0.90;;;;;;;19.78;100.00;94152.94;5140293;27;20203;-80
2021/07/08 09:46:47;;;;;;;1.30;0.88;;;;;;;19.91;100.00;94152.56;5138751;27;20197;-80
2021/07/08 09:49:14;;;;;;;1.50;0.80;;;;;;;20.00;100.00;94154.78;5139285;27;20200;-80
2021/07/08 09:51:44;;;;;;;1.13;0.80;;;;;;;19.71;100.00;94141.72;5138524;27;20799;-80
2021/07/08 09:54:13;;;;;;;1.27;0.80;;;;;;;20.28;100.00;94138.63;5140862;28;20224;-81
2021/07/08 09:56:45;;;;;;;0.80;0.80;;;;;;;20.44;100.00;94128.13;5136598;28;20203;-81
2021/07/08 09:59:13;;;;;;;1.45;0.82;;;;;;;20.44;100.00;94133.44;5143029;28;20203;-80
2021/07/08 10:01:41;;;;;;;0.80;0.80;;;;;;;20.64;100.00;94135.47;5136221;28;20226;-81
2021/07/08 10:04:08;;;;;;;0.70;0.60;;;;;;;20.17;100.00;94142.22;5136490;28;20207;-80
2021/07/08 10:06:36;;;;;;;0.60;0.60;;;;;;;20.23;100.00;94157.13;5135963;28;20233;-82
2021/07/08 10:09:06;;;;;;;0.70;0.68;;;;;;;19.76;100.00;94152.41;5136119;28;20203;-81
2021/07/08 10:11:32;;;;;;;1.42;0.70;;;;;;;19.80;100.00;94164.13;5137949;28;20227;-83
2021/07/08 10:14:02;;;;;;;3.38;0.80;;;;;;;19.74;100.00;94159.78;5135454;28;20285;-82
2021/07/08 10:16:32;;;;;;;1.45;0.80;;;;;;;19.50;100.00;94153.91;5138275;28;20291;-81
2021/07/08 10:19:05;;;;;;;1.33;1.00;;;;;;;19.60;100.00;94165.44;5137673;28;20272;-81
2021/07/08 10:21:32;;;;;;;0.82;0.60;;;;;;;19.66;100.00;94158.34;5137263;28;20196;-81
2021/07/08 10:24:01;;;;;;;1.65;1.00;;;;;;;19.94;100.00;94161.88;5136690;28;20212;-81
2021/07/08 10:26:30;;;;;;;0.60;0.60;;;;;;;20.12;100.00;94158.09;5136596;28;20656;-83
2021/07/08 10:28:57;;;;;;;0.80;0.80;;;;;;;20.37;100.00;94165.47;5137250;28;20220;-82
2021/07/08 10:31:25;;;;;;;0.63;0.57;;;;;;;20.55;100.00;94177.56;5137507;28;20200;-82
2021/07/08 10:34:07;;;;;;;3.05;0.60;;;;;;;20.18;100.00;94178.28;5137070;28;20200;-83
2021/07/08 10:36:34;;;;;;;0.70;0.60;;;;;;;19.91;100.00;94184.38;5140673;28;20199;-81
2021/07/08 10:39:04;;;;;;;3.40;0.70;;;;;;;19.96;100.00;94180.97;5138114;28;20193;-81
2021/07/08 10:41:49;;;;;;;0.68;0.68;;;;;;;19.79;100.00;94167.81;5142135;27;20603;-82
2021/07/08 10:44:48;;;;;;;0.75;0.68;;;;;;;20.01;100.00;94166.97;5146157;27;20239;-82
2021/07/08 10:47:37;;;;;;;0.95;0.68;;;;;;;19.92;100.00;94177.25;5147058;27;20199;-82
2021/07/08 10:50:08;;;;;;;2.55;0.80;;;;;;;19.85;100.00;94169.47;5146374;27;20850;-81
2021/07/08 10:52:48;;;;;;;0.80;0.70;;;;;;;19.88;100.00;94179.56;5146099;27;20192;-81
2021/07/08 10:55:36;;;;;;;1.10;1.00;;;;;;;19.64;100.00;94171.06;5144572;27;20311;-82
2021/07/08 10:58:05;;;;;;;1.60;1.20;;;;;;;19.68;100.00;94172.16;5143088;27;20204;-81
2021/07/08 11:00:46;;;;;;;2.78;1.10;;;;;;;19.45;100.00;94170.56;5143501;27;20201;-80
2021/07/08 11:03:45;;;;;;;1.33;1.10;;;;;;;19.72;100.00;94185.72;5144469;27;20192;-81
2021/07/08 11:06:25;;;;;;;2.05;1.05;;;;;;;20.00;100.00;94190.06;5142067;27;20276;-81
2021/07/08 11:08:57;;;;;;;1.42;1.30;;;;;;;20.11;100.00;94175.03;5143673;27;20196;-81
2021/07/08 11:12:02;;;;;;;2.53;1.15;;;;;;;20.05;100.00;94184.78;5142164;27;20600;-80
2021/07/08 11:14:39;;;;;;;3.95;1.38;;;;;;;20.00;100.00;94198.00;5139624;27;20216;-79
2021/07/08 11:17:20;;;;;;;4.47;1.30;;;;;;;20.15;100.00;94198.16;5139642;27;20200;-81
2021/07/08 11:19:49;;;;;;;2.53;1.30;;;;;;;20.10;100.00;94189.31;5143321;27;20677;-81
2021/07/08 11:22:33;;;;;;;2.55;1.10;;;;;;;20.39;100.00;94184.59;5145365;27;20249;-80
2021/07/08 11:25:00;;;;;;;1.30;1.02;;;;;;;20.04;100.00;94182.41;5144176;27;20232;-80
2021/07/08 11:27:37;;;;;;;1.00;0.90;;;;;;;20.17;100.00;94171.41;5144892;27;20196;-82
2021/07/08 11:30:28;;;;;;;1.08;0.98;;;;;;;20.67;100.00;94169.47;5123116;28;20235;-81
2021/07/08 11:33:05;;;;;;;1.00;0.90;;;;;;;20.45;100.00;94166.84;5122875;28;20201;-81